createdAt,value
2023-02-08T00:00:46.420Z,21.80
2023-02-08T00:03:14.385Z,21.80
2023-02-08T00:05:42.234Z,21.80
2023-02-08T00:08:10.033Z,21.80
2023-02-08T00:10:38.181Z,21.90
2023-02-08T00:13:06.136Z,21.80
2023-02-08T00:15:35.425Z,21.80
2023-02-08T00:18:03.200Z,21.80
2023-02-08T00:20:30.875Z,21.90
2023-02-08T00:22:58.577Z,21.80
2023-02-08T00:25:26.269Z,21.80
2023-02-08T00:27:53.980Z,21.80
2023-02-08T00:30:21.836Z,21.90
2023-02-08T00:32:50.904Z,21.80
2023-02-08T00:35:19.311Z,21.80
2023-02-08T00:37:47.341Z,21.80
2023-02-08T00:40:15.046Z,21.80
2023-02-08T00:42:43.276Z,21.80
2023-02-08T00:45:11.206Z,21.80
2023-02-08T00:47:38.992Z,21.90
2023-02-08T00:50:08.649Z,21.80
2023-02-08T00:52:37.775Z,21.80
2023-02-08T00:55:06.519Z,21.80
2023-02-08T00:57:34.280Z,21.80
2023-02-08T01:00:02.654Z,21.80
2023-02-08T01:02:30.388Z,21.80
2023-02-08T01:04:58.107Z,21.80
2023-02-08T01:07:27.238Z,21.80
2023-02-08T01:09:55.122Z,21.80
2023-02-08T01:12:22.963Z,21.90
2023-02-08T01:14:50.656Z,21.80
2023-02-08T01:17:18.434Z,21.80
2023-02-08T01:19:46.153Z,21.80
2023-02-08T01:22:13.901Z,21.80
2023-02-08T01:24:42.994Z,21.80
2023-02-08T01:27:10.734Z,21.90
2023-02-08T01:29:38.511Z,21.80
2023-02-08T01:32:07.688Z,21.80
2023-02-08T01:34:35.404Z,21.90
2023-02-08T01:37:03.165Z,21.80
2023-02-08T01:39:30.874Z,21.90
2023-02-08T01:41:59.903Z,21.80
2023-02-08T01:45:05.422Z,21.80
2023-02-08T01:47:33.376Z,21.90
2023-02-08T01:50:01.545Z,21.80
2023-02-08T01:52:30.038Z,21.80
2023-02-08T01:55:06.195Z,21.80
2023-02-08T01:57:35.314Z,21.80
2023-02-08T02:00:07.898Z,21.90
2023-02-08T02:02:56.378Z,21.80
2023-02-08T02:05:28.534Z,21.80
2023-02-08T02:07:58.380Z,21.80
2023-02-08T02:10:29.554Z,21.80
2023-02-08T02:13:04.450Z,21.80
2023-02-08T02:15:33.584Z,21.80
2023-02-08T02:18:01.991Z,21.80
2023-02-08T02:20:42.948Z,21.80
2023-02-08T02:23:42.250Z,21.80
2023-02-08T02:26:40.763Z,21.80
2023-02-08T02:29:39.461Z,21.90
2023-02-08T02:32:24.280Z,21.80
2023-02-08T02:34:58.665Z,21.80
2023-02-08T02:37:38.517Z,21.90
2023-02-08T02:40:16.153Z,21.80
2023-02-08T02:43:15.410Z,21.80
2023-02-08T02:45:50.932Z,21.80
2023-02-08T02:48:28.090Z,21.80
2023-02-08T02:51:01.627Z,21.80
2023-02-08T02:53:34.894Z,21.80
2023-02-08T02:56:08.102Z,21.80
2023-02-08T02:58:38.302Z,21.80
2023-02-08T03:01:06.404Z,21.80
2023-02-08T03:03:36.129Z,21.80
2023-02-08T03:06:07.161Z,21.80
2023-02-08T03:08:55.370Z,21.80
2023-02-08T03:11:27.367Z,21.80
2023-02-08T03:14:09.581Z,21.90
2023-02-08T03:16:49.699Z,21.90
2023-02-08T03:19:23.549Z,21.80
2023-02-08T03:21:57.717Z,21.80
2023-02-08T03:24:29.227Z,21.80
2023-02-08T03:27:03.570Z,21.80
2023-02-08T03:29:43.596Z,21.80
2023-02-08T03:32:14.519Z,21.80
2023-02-08T03:34:48.798Z,21.80
2023-02-08T03:37:21.871Z,21.80
2023-02-08T03:39:52.753Z,21.80
2023-02-08T03:42:24.524Z,21.80
2023-02-08T03:44:57.162Z,21.80
2023-02-08T03:47:27.886Z,21.80
2023-02-08T03:50:01.165Z,21.80
2023-02-08T03:52:31.159Z,21.80
2023-02-08T03:55:04.636Z,21.80
2023-02-08T03:57:36.166Z,21.80
2023-02-08T04:00:08.229Z,21.80
2023-02-08T04:02:49.969Z,21.80
2023-02-08T04:05:19.726Z,21.80
2023-02-08T04:07:48.935Z,21.80
2023-02-08T04:10:17.221Z,21.80
2023-02-08T04:12:46.318Z,21.80
2023-02-08T04:15:14.012Z,21.80
2023-02-08T04:17:41.723Z,21.80
2023-02-08T04:20:10.144Z,21.80
2023-02-08T04:22:39.293Z,21.80
2023-02-08T04:25:07.388Z,21.80
2023-02-08T04:27:35.132Z,21.80
2023-02-08T04:30:02.832Z,21.80
2023-02-08T04:32:30.522Z,21.80
2023-02-08T04:34:58.367Z,21.80
2023-02-08T04:37:26.542Z,21.80
2023-02-08T04:39:55.648Z,21.80
2023-02-08T04:42:23.469Z,21.80
2023-02-08T04:44:51.161Z,21.80
2023-02-08T04:47:18.870Z,21.80
2023-02-08T04:49:46.572Z,21.80
2023-02-08T04:52:14.321Z,21.80
2023-02-08T04:54:42.005Z,21.80
2023-02-08T04:57:13.503Z,21.80
2023-02-08T04:59:41.381Z,21.80
2023-02-08T05:02:09.553Z,21.80
2023-02-08T05:04:37.291Z,21.80
2023-02-08T05:07:05.217Z,21.80
2023-02-08T05:09:33.109Z,21.70
2023-02-08T05:12:00.804Z,21.70
2023-02-08T05:14:29.876Z,21.70
2023-02-08T05:16:57.558Z,21.70
2023-02-08T05:19:25.301Z,21.70
2023-02-08T05:21:52.996Z,21.80
2023-02-08T05:24:20.689Z,21.80
2023-02-08T05:26:48.366Z,21.70
2023-02-08T05:29:16.201Z,21.70
2023-02-08T05:31:45.377Z,21.70
2023-02-08T05:34:13.326Z,21.80
2023-02-08T05:36:41.030Z,21.70
2023-02-08T05:39:08.789Z,21.70
2023-02-08T05:41:36.561Z,21.70
2023-02-08T05:44:04.286Z,21.70
2023-02-08T05:46:32.080Z,21.70
2023-02-08T05:49:01.990Z,21.70
2023-02-08T05:51:29.680Z,21.70
2023-02-08T05:53:57.360Z,21.70
2023-02-08T05:56:25.090Z,21.80
2023-02-08T05:58:52.759Z,21.70
2023-02-08T06:01:20.524Z,21.80
2023-02-08T06:03:48.705Z,21.70
2023-02-08T06:06:17.773Z,21.70
2023-02-08T06:08:45.488Z,21.70
2023-02-08T06:11:13.452Z,21.70
2023-02-08T06:13:41.150Z,21.70
2023-02-08T06:16:09.207Z,21.70
2023-02-08T06:18:36.965Z,21.70
2023-02-08T06:21:05.016Z,21.70
2023-02-08T06:23:34.480Z,21.70
2023-02-08T06:26:02.628Z,21.70
2023-02-08T06:28:30.479Z,21.70
2023-02-08T06:30:58.240Z,21.80
2023-02-08T06:33:26.130Z,21.80
2023-02-08T06:35:54.407Z,21.80
2023-02-08T06:38:22.319Z,21.80
2023-02-08T06:40:51.550Z,21.80
2023-02-08T06:43:19.350Z,21.80
2023-02-08T06:45:47.723Z,21.90
2023-02-08T06:48:15.747Z,21.90
2023-02-08T06:50:43.922Z,21.90
2023-02-08T06:53:11.902Z,21.90
2023-02-08T06:55:39.667Z,21.90
2023-02-08T06:58:09.857Z,21.90
2023-02-08T07:00:39.168Z,21.90
2023-02-08T07:03:07.210Z,21.90
2023-02-08T07:05:35.602Z,21.80
2023-02-08T07:08:04.453Z,21.90
2023-02-08T07:10:32.235Z,21.90
2023-02-08T07:13:00.155Z,21.90
2023-02-08T07:15:30.708Z,21.90
2023-02-08T07:17:58.450Z,21.90
2023-02-08T07:20:26.205Z,21.90
2023-02-08T07:22:53.905Z,21.90
2023-02-08T07:25:21.631Z,21.80
2023-02-08T07:27:49.516Z,21.80
2023-02-08T07:30:17.490Z,21.80
2023-02-08T07:32:46.642Z,21.80
2023-02-08T07:35:14.335Z,21.90
2023-02-08T07:37:42.035Z,21.80
2023-02-08T07:40:11.056Z,21.80
2023-02-08T07:42:38.793Z,21.80
2023-02-08T07:45:17.829Z,21.90
2023-02-08T07:47:48.335Z,21.90
2023-02-08T07:50:16.245Z,21.80
2023-02-08T07:52:46.157Z,21.80
2023-02-08T07:55:16.893Z,21.80
2023-02-08T07:57:44.780Z,21.80
2023-02-08T08:00:13.481Z,21.80
2023-02-08T08:02:41.440Z,21.80
2023-02-08T08:05:11.716Z,21.80
2023-02-08T08:07:39.428Z,21.80
2023-02-08T08:10:07.643Z,21.80
2023-02-08T08:12:35.332Z,21.80
2023-02-08T08:15:03.092Z,21.70
2023-02-08T08:17:30.799Z,21.80
2023-02-08T08:19:58.541Z,21.70
2023-02-08T08:22:27.624Z,21.70
2023-02-08T08:24:55.608Z,21.80
2023-02-08T08:27:23.317Z,21.80
2023-02-08T08:29:51.142Z,21.80
2023-02-08T08:32:18.869Z,21.70
2023-02-08T08:34:46.543Z,21.70
2023-02-08T08:37:14.249Z,21.80
2023-02-08T08:39:43.424Z,21.70
2023-02-08T08:42:11.314Z,21.70
2023-02-08T08:44:39.346Z,21.80
2023-02-08T08:47:07.254Z,21.80
2023-02-08T08:49:35.373Z,21.80
2023-02-08T08:52:03.072Z,21.80
2023-02-08T08:54:30.735Z,21.80
2023-02-08T08:56:59.739Z,21.80
2023-02-08T08:59:27.921Z,21.80
2023-02-08T09:01:55.793Z,21.80
2023-02-08T09:04:23.579Z,21.80
2023-02-08T09:06:51.894Z,21.80
2023-02-08T09:09:20.245Z,21.80
2023-02-08T09:11:48.470Z,21.80
2023-02-08T09:14:17.517Z,21.80
2023-02-08T09:16:47.957Z,21.80
2023-02-08T09:19:16.388Z,21.80
2023-02-08T09:21:44.412Z,21.80
2023-02-08T09:24:12.394Z,21.80
2023-02-08T09:26:40.749Z,21.80
2023-02-08T09:29:08.477Z,21.80
2023-02-08T09:31:38.302Z,21.90
2023-02-08T09:34:06.947Z,21.90
2023-02-08T09:36:36.943Z,21.90
2023-02-08T09:39:09.097Z,21.90
2023-02-08T09:42:06.008Z,21.90
2023-02-08T09:44:40.409Z,21.90
2023-02-08T09:47:16.889Z,21.90
2023-02-08T09:49:52.384Z,21.90
2023-02-08T09:52:23.490Z,21.90
2023-02-08T09:54:55.163Z,21.90
2023-02-08T09:57:28.959Z,22.00
2023-02-08T10:00:00.648Z,22.00
2023-02-08T10:02:32.022Z,22.00
2023-02-08T10:05:02.704Z,22.00
2023-02-08T10:07:31.778Z,22.00
2023-02-08T10:10:01.931Z,22.00
2023-02-08T10:12:39.473Z,22.00
2023-02-08T10:15:23.051Z,22.10
2023-02-08T10:18:19.624Z,22.10
2023-02-08T10:21:01.604Z,22.10
2023-02-08T10:23:46.347Z,22.10
2023-02-08T10:26:19.588Z,22.10
2023-02-08T10:29:03.095Z,22.10
2023-02-08T10:31:45.151Z,22.10
2023-02-08T10:34:26.460Z,22.10
2023-02-08T10:36:54.418Z,22.20
2023-02-08T10:39:29.083Z,22.20
2023-02-08T10:41:57.133Z,22.20
2023-02-08T10:44:31.893Z,22.20
2023-02-08T10:47:12.178Z,22.20
2023-02-08T10:49:50.037Z,22.20
2023-02-08T10:52:17.750Z,22.30
2023-02-08T10:54:45.459Z,22.30
2023-02-08T10:57:16.821Z,22.30
2023-02-08T10:59:50.316Z,22.30
2023-02-08T11:02:23.561Z,22.40
2023-02-08T11:05:12.255Z,22.40
2023-02-08T11:07:40.277Z,22.50
2023-02-08T11:10:26.182Z,22.50
2023-02-08T11:12:57.393Z,22.50
2023-02-08T11:15:27.994Z,22.50
2023-02-08T11:18:00.088Z,22.50
2023-02-08T11:20:34.638Z,22.50
2023-02-08T11:23:02.516Z,22.50
2023-02-08T11:25:36.223Z,22.50
2023-02-08T11:28:04.838Z,22.50
2023-02-08T11:30:33.377Z,22.50
2023-02-08T11:33:20.375Z,22.50
2023-02-08T11:35:59.299Z,22.50
2023-02-08T11:38:30.966Z,22.50
2023-02-08T11:41:01.874Z,22.50
2023-02-08T11:43:32.320Z,22.40
2023-02-08T11:46:02.100Z,22.40
2023-02-08T11:48:41.515Z,22.40
2023-02-08T11:51:13.013Z,22.30
2023-02-08T11:53:42.450Z,22.30
2023-02-08T11:56:18.470Z,22.30
2023-02-08T11:59:06.517Z,22.30
2023-02-08T12:01:35.785Z,22.30
2023-02-08T12:04:06.328Z,22.30
2023-02-08T12:06:56.195Z,22.30
2023-02-08T12:09:51.785Z,22.30
2023-02-08T12:12:26.051Z,22.30
2023-02-08T12:15:04.732Z,22.30
2023-02-08T12:17:57.131Z,22.30
2023-02-08T12:20:40.916Z,22.30
2023-02-08T12:23:25.353Z,22.30
2023-02-08T12:26:02.006Z,22.30
2023-02-08T12:28:41.017Z,22.30
2023-02-08T12:31:15.682Z,22.30
2023-02-08T12:33:55.625Z,22.30
2023-02-08T12:36:32.553Z,22.40
2023-02-08T12:39:31.153Z,22.40
2023-02-08T12:42:13.072Z,22.40
2023-02-08T12:44:57.726Z,22.40
2023-02-08T12:47:36.414Z,22.40
2023-02-08T12:50:12.857Z,22.40
2023-02-08T12:52:44.170Z,22.40
2023-02-08T12:55:19.632Z,22.40
2023-02-08T12:57:52.839Z,22.40
2023-02-08T13:00:23.829Z,22.50
2023-02-08T13:02:58.848Z,22.50
2023-02-08T13:05:31.155Z,22.50
2023-02-08T13:08:04.033Z,22.50
2023-02-08T13:10:38.284Z,22.50
2023-02-08T13:13:16.895Z,22.50
2023-02-08T13:15:47.984Z,22.50
2023-02-08T13:18:21.207Z,22.50
2023-02-08T13:20:52.723Z,22.50
2023-02-08T13:23:26.558Z,22.50
2023-02-08T13:25:58.994Z,22.50
2023-02-08T13:28:28.086Z,22.50
2023-02-08T13:31:00.458Z,22.50
2023-02-08T13:33:35.704Z,22.50
2023-02-08T13:36:04.076Z,22.50
2023-02-08T13:38:34.695Z,22.50
2023-02-08T13:41:06.818Z,22.50
2023-02-08T13:43:40.200Z,22.50
2023-02-08T13:46:09.400Z,22.50
2023-02-08T13:48:46.298Z,22.50
2023-02-08T13:51:59.518Z,22.50
2023-02-08T13:54:27.384Z,22.50
2023-02-08T13:56:56.962Z,22.40
2023-02-08T13:59:38.202Z,22.40
2023-02-08T14:02:30.827Z,22.40
2023-02-08T14:05:35.149Z,22.40
2023-02-08T14:08:05.063Z,22.40
2023-02-08T14:10:37.811Z,22.40
2023-02-08T14:13:17.646Z,22.40
2023-02-08T14:15:45.771Z,22.40
2023-02-08T14:18:25.148Z,22.40
2023-02-08T14:21:04.366Z,22.40
2023-02-08T14:23:33.968Z,22.50
2023-02-08T14:26:08.305Z,22.50
2023-02-08T14:28:41.977Z,22.50
2023-02-08T14:31:12.154Z,22.50
2023-02-08T14:33:42.148Z,22.50
2023-02-08T14:36:24.331Z,22.50
2023-02-08T14:39:07.721Z,22.50
2023-02-08T14:41:48.247Z,22.50
2023-02-08T14:44:55.546Z,22.50
2023-02-08T14:47:53.888Z,22.60
2023-02-08T14:50:27.535Z,22.60
2023-02-08T14:53:01.966Z,22.60
2023-02-08T14:55:34.840Z,22.60
2023-02-08T14:58:03.924Z,22.60
2023-02-08T15:00:36.063Z,22.60
2023-02-08T15:03:08.109Z,22.60
2023-02-08T15:05:41.925Z,22.60
2023-02-08T15:08:09.904Z,22.60
2023-02-08T15:10:44.822Z,22.60
2023-02-08T15:13:20.202Z,22.60
2023-02-08T15:15:54.113Z,22.70
2023-02-08T15:18:25.977Z,22.70
2023-02-08T15:21:04.017Z,22.70
2023-02-08T15:23:31.888Z,22.70
2023-02-08T15:26:01.840Z,22.70
2023-02-08T15:28:31.787Z,22.70
2023-02-08T15:31:01.468Z,22.70
2023-02-08T15:33:30.649Z,22.70
2023-02-08T15:36:01.097Z,22.70
2023-02-08T15:38:30.388Z,22.70
2023-02-08T15:41:03.906Z,22.70
2023-02-08T15:43:31.953Z,22.70
2023-02-08T15:46:01.205Z,22.70
2023-02-08T15:48:30.853Z,22.70
2023-02-08T15:50:59.816Z,22.60
2023-02-08T15:53:28.993Z,22.60
2023-02-08T15:55:59.916Z,22.60
2023-02-08T15:58:31.104Z,22.60
2023-02-08T16:01:01.910Z,22.60
2023-02-08T16:03:32.072Z,22.60
2023-02-08T16:06:02.512Z,22.60
2023-02-08T16:08:32.979Z,22.60
2023-02-08T16:11:02.916Z,22.60
2023-02-08T16:13:34.938Z,22.60
2023-02-08T16:16:18.024Z,22.50
2023-02-08T16:18:50.163Z,22.50
2023-02-08T16:21:27.625Z,22.50
2023-02-08T16:23:57.411Z,22.50
2023-02-08T16:26:28.721Z,22.50
2023-02-08T16:29:00.262Z,22.50
2023-02-08T16:31:30.715Z,22.50
2023-02-08T16:34:02.102Z,22.40
2023-02-08T16:36:35.509Z,22.40
2023-02-08T16:39:46.815Z,22.40
2023-02-08T16:42:24.110Z,22.40
2023-02-08T16:45:14.246Z,22.40
2023-02-08T16:47:43.399Z,22.30
2023-02-08T16:50:14.834Z,22.40
2023-02-08T16:52:42.561Z,22.30
2023-02-08T16:55:17.636Z,22.30
2023-02-08T16:57:47.076Z,22.30
2023-02-08T17:00:18.795Z,22.30
2023-02-08T17:02:46.906Z,22.30
2023-02-08T17:05:16.580Z,22.30
2023-02-08T17:07:44.771Z,22.30
2023-02-08T17:10:19.617Z,22.30
2023-02-08T17:12:47.316Z,22.30
2023-02-08T17:15:15.064Z,22.20
2023-02-08T17:17:42.810Z,22.20
2023-02-08T17:20:21.425Z,22.20
2023-02-08T17:22:49.467Z,22.20
2023-02-08T17:25:19.736Z,22.10
2023-02-08T17:27:50.768Z,22.10
2023-02-08T17:30:24.143Z,22.10
2023-02-08T17:32:53.372Z,22.10
2023-02-08T17:35:22.592Z,22.10
2023-02-08T17:37:52.974Z,22.00
2023-02-08T17:40:22.245Z,22.00
2023-02-08T17:42:50.330Z,22.00
2023-02-08T17:45:18.159Z,22.00
2023-02-08T17:47:45.921Z,22.00
2023-02-08T17:50:15.569Z,22.00
2023-02-08T17:52:44.720Z,22.00
2023-02-08T17:55:15.183Z,22.00
2023-02-08T17:57:44.161Z,22.00
2023-02-08T18:00:15.086Z,22.00
2023-02-08T18:02:44.619Z,22.00
2023-02-08T18:05:12.390Z,22.00
2023-02-08T18:07:41.327Z,22.00
2023-02-08T18:10:13.290Z,21.90
2023-02-08T18:12:41.100Z,21.90
2023-02-08T18:15:11.949Z,21.90
2023-02-08T18:17:40.005Z,22.00
2023-02-08T18:20:09.249Z,21.90
2023-02-08T18:22:37.953Z,21.90
2023-02-08T18:25:06.592Z,21.90
2023-02-08T18:27:35.797Z,21.90
2023-02-08T18:30:03.963Z,21.90
2023-02-08T18:32:31.676Z,21.90
2023-02-08T18:35:00.699Z,21.90
2023-02-08T18:37:30.270Z,21.90
2023-02-08T18:39:58.148Z,21.90
2023-02-08T18:42:25.898Z,21.90
2023-02-08T18:44:55.072Z,21.90
2023-02-08T18:47:22.800Z,21.90
2023-02-08T18:49:54.274Z,21.90
2023-02-08T18:52:23.536Z,21.90
2023-02-08T18:54:51.472Z,21.90
2023-02-08T18:57:19.198Z,21.90
2023-02-08T18:59:47.009Z,21.90
2023-02-08T19:02:20.747Z,21.90
2023-02-08T19:04:48.973Z,21.90
2023-02-08T19:07:17.159Z,21.90
2023-02-08T19:09:44.868Z,21.90
2023-02-08T19:12:15.287Z,21.80
2023-02-08T19:14:43.979Z,21.90
2023-02-08T19:17:14.760Z,21.90
2023-02-08T19:19:44.183Z,21.90
2023-02-08T19:22:12.087Z,21.90
2023-02-08T19:24:39.801Z,21.80
2023-02-08T19:27:07.517Z,21.90
2023-02-08T19:29:35.323Z,21.80
2023-02-08T19:32:03.053Z,21.80
2023-02-08T19:34:30.767Z,21.80
2023-02-08T19:36:59.828Z,21.80
2023-02-08T19:39:28.248Z,21.80
2023-02-08T19:41:58.392Z,21.80
2023-02-08T19:44:28.311Z,21.90
2023-02-08T19:46:57.698Z,21.80
2023-02-08T19:49:27.209Z,21.80
2023-02-08T19:51:55.470Z,21.80
2023-02-08T19:54:24.921Z,21.80
2023-02-08T19:56:54.527Z,21.80
2023-02-08T19:59:24.334Z,21.80
2023-02-08T20:01:52.643Z,21.80
2023-02-08T20:04:20.661Z,21.80
2023-02-08T20:06:52.262Z,21.90
2023-02-08T20:09:20.044Z,21.80
2023-02-08T20:11:57.295Z,21.80
2023-02-08T20:14:25.896Z,21.90
2023-02-08T20:16:53.896Z,21.90
2023-02-08T20:19:21.824Z,21.80
2023-02-08T20:21:49.617Z,21.80
2023-02-08T20:24:17.727Z,21.80
2023-02-08T20:26:47.155Z,21.80
2023-02-08T20:29:17.251Z,21.80
2023-02-08T20:31:47.515Z,21.90
2023-02-08T20:34:18.548Z,21.80
2023-02-08T20:37:04.561Z,21.80
2023-02-08T20:39:34.493Z,21.80
2023-02-08T20:42:02.196Z,21.90
2023-02-08T20:44:31.734Z,21.90
2023-02-08T20:46:59.640Z,21.80
2023-02-08T20:49:27.440Z,21.80
2023-02-08T20:51:55.819Z,21.90
2023-02-08T20:54:24.862Z,21.90
2023-02-08T20:56:54.388Z,21.90
2023-02-08T20:59:22.320Z,21.90
2023-02-08T21:01:51.475Z,21.90
2023-02-08T21:04:23.033Z,21.90
2023-02-08T21:06:51.669Z,21.90
2023-02-08T21:09:20.229Z,21.80
2023-02-08T21:11:48.538Z,21.90
2023-02-08T21:14:18.900Z,21.80
2023-02-08T21:16:48.186Z,21.80
2023-02-08T21:19:17.780Z,21.80
2023-02-08T21:21:45.761Z,21.80
2023-02-08T21:24:13.550Z,21.80
2023-02-08T21:26:41.466Z,21.80
2023-02-08T21:29:09.204Z,21.80
2023-02-08T21:31:37.522Z,21.80
2023-02-08T21:34:06.364Z,21.80
2023-02-08T21:36:35.963Z,21.90
2023-02-08T21:39:04.119Z,21.80
2023-02-08T21:41:34.110Z,21.80
2023-02-08T21:44:04.350Z,21.80
2023-02-08T21:46:33.079Z,21.80
2023-02-08T21:49:19.378Z,21.80
2023-02-08T21:52:06.085Z,21.80
2023-02-08T21:54:45.628Z,21.80
2023-02-08T21:57:17.714Z,21.80
2023-02-08T21:59:46.392Z,21.80
2023-02-08T22:02:16.394Z,21.80
2023-02-08T22:05:01.633Z,21.80
2023-02-08T22:07:39.998Z,21.80
2023-02-08T22:10:08.386Z,21.80
2023-02-08T22:12:36.218Z,21.80
2023-02-08T22:15:04.089Z,21.80
2023-02-08T22:17:31.779Z,21.80
2023-02-08T22:19:59.471Z,21.80
2023-02-08T22:22:27.239Z,21.80
2023-02-08T22:24:56.297Z,21.80
2023-02-08T22:27:24.124Z,21.80
2023-02-08T22:29:51.822Z,21.80
2023-02-08T22:32:19.712Z,21.80
2023-02-08T22:34:48.433Z,21.80
2023-02-08T22:37:16.956Z,21.80
2023-02-08T22:39:44.778Z,21.80
2023-02-08T22:42:14.634Z,21.80
2023-02-08T22:44:43.918Z,21.80
2023-02-08T22:47:13.620Z,21.80
2023-02-08T22:49:41.613Z,21.80
2023-02-08T22:52:11.005Z,21.80
2023-02-08T22:54:38.990Z,21.80
2023-02-08T22:57:06.833Z,21.80
2023-02-08T22:59:37.323Z,21.80
2023-02-08T23:02:05.701Z,21.80
2023-02-08T23:04:33.611Z,21.80
2023-02-08T23:07:01.547Z,21.80
2023-02-08T23:09:29.391Z,21.80
2023-02-08T23:11:57.173Z,21.80
2023-02-08T23:14:24.875Z,21.80
2023-02-08T23:16:53.888Z,21.80
2023-02-08T23:19:21.650Z,21.80
2023-02-08T23:21:49.384Z,21.80
2023-02-08T23:24:17.507Z,21.80
2023-02-08T23:26:45.200Z,21.80
2023-02-08T23:29:12.895Z,21.80
2023-02-08T23:31:41.107Z,21.80
2023-02-08T23:34:11.311Z,21.80
2023-02-08T23:36:39.910Z,21.80
2023-02-08T23:39:07.704Z,21.80
2023-02-08T23:41:35.463Z,21.80
2023-02-08T23:44:03.439Z,21.80
2023-02-08T23:46:31.316Z,21.80
2023-02-08T23:48:59.203Z,21.80
2023-02-08T23:51:28.510Z,21.80
2023-02-08T23:53:56.424Z,21.80
2023-02-08T23:56:26.146Z,21.80
2023-02-08T23:58:56.618Z,21.80
